sensor_id;sensor_type;location;lat;lon;timestamp;P1;durP1;ratioP1;P2;durP2;ratioP2
71484;SDS011;59300;52.074;4.758;2022-11-28T00:00:18;45.15;;;20.15;;
71484;SDS011;59300;52.074;4.758;2022-11-28T00:03:20;44.22;;;18.25;;
71484;SDS011;59300;52.074;4.758;2022-11-28T00:06:22;43.10;;;19.38;;
71484;SDS011;59300;52.074;4.758;2022-11-28T00:09:24;44.38;;;20.58;;
71484;SDS011;59300;52.074;4.758;2022-11-28T00:12:26;43.88;;;19.23;;
71484;SDS011;59300;52.074;4.758;2022-11-28T00:15:28;39.75;;;19.65;;
71484;SDS011;59300;52.074;4.758;2022-11-28T00:18:30;44.17;;;20.67;;
71484;SDS011;59300;52.074;4.758;2022-11-28T00:21:31;46.45;;;20.67;;
71484;SDS011;59300;52.074;4.758;2022-11-28T00:24:33;47.05;;;22.38;;
71484;SDS011;59300;52.074;4.758;2022-11-28T00:27:34;53.08;;;21.55;;
71484;SDS011;59300;52.074;4.758;2022-11-28T00:30:36;44.17;;;20.80;;
71484;SDS011;59300;52.074;4.758;2022-11-28T00:33:38;45.10;;;20.80;;
71484;SDS011;59300;52.074;4.758;2022-11-28T00:36:41;50.38;;;21.75;;
71484;SDS011;59300;52.074;4.758;2022-11-28T00:42:45;53.25;;;22.58;;
71484;SDS011;59300;52.074;4.758;2022-11-28T00:45:47;52.25;;;21.73;;
71484;SDS011;59300;52.074;4.758;2022-11-28T00:48:49;44.28;;;20.83;;
71484;SDS011;59300;52.074;4.758;2022-11-28T00:51:51;44.97;;;21.83;;
71484;SDS011;59300;52.074;4.758;2022-11-28T00:54:53;47.45;;;22.65;;
71484;SDS011;59300;52.074;4.758;2022-11-28T00:57:54;46.60;;;21.88;;
71484;SDS011;59300;52.074;4.758;2022-11-28T01:00:56;55.05;;;22.35;;
71484;SDS011;59300;52.074;4.758;2022-11-28T01:03:58;54.63;;;21.13;;
71484;SDS011;59300;52.074;4.758;2022-11-28T01:07:01;41.53;;;20.40;;
71484;SDS011;59300;52.074;4.758;2022-11-28T01:10:03;46.90;;;22.35;;
71484;SDS011;59300;52.074;4.758;2022-11-28T01:13:05;43.53;;;21.48;;
71484;SDS011;59300;52.074;4.758;2022-11-28T01:16:07;49.80;;;21.38;;
71484;SDS011;59300;52.074;4.758;2022-11-28T01:19:09;44.92;;;21.95;;
71484;SDS011;59300;52.074;4.758;2022-11-28T01:22:11;49.00;;;21.95;;
71484;SDS011;59300;52.074;4.758;2022-11-28T01:25:12;43.30;;;20.83;;
71484;SDS011;59300;52.074;4.758;2022-11-28T01:28:14;49.92;;;21.77;;
71484;SDS011;59300;52.074;4.758;2022-11-28T01:31:17;41.25;;;19.60;;
71484;SDS011;59300;52.074;4.758;2022-11-28T01:34:21;44.67;;;21.70;;
71484;SDS011;59300;52.074;4.758;2022-11-28T01:37:23;49.25;;;21.63;;
71484;SDS011;59300;52.074;4.758;2022-11-28T01:40:24;39.95;;;20.63;;
71484;SDS011;59300;52.074;4.758;2022-11-28T01:43:26;44.45;;;21.60;;
71484;SDS011;59300;52.074;4.758;2022-11-28T01:46:28;48.88;;;21.73;;
71484;SDS011;59300;52.074;4.758;2022-11-28T01:49:34;42.55;;;22.17;;
71484;SDS011;59300;52.074;4.758;2022-11-28T01:52:38;45.03;;;20.45;;
71484;SDS011;59300;52.074;4.758;2022-11-28T01:55:46;39.35;;;19.33;;
71484;SDS011;59300;52.074;4.758;2022-11-28T01:58:57;42.83;;;18.70;;
71484;SDS011;59300;52.074;4.758;2022-11-28T02:02:06;40.67;;;19.02;;
71484;SDS011;59300;52.074;4.758;2022-11-28T02:05:14;38.40;;;18.42;;
71484;SDS011;59300;52.074;4.758;2022-11-28T02:08:16;35.67;;;17.92;;
71484;SDS011;59300;52.074;4.758;2022-11-28T02:21:45;28.58;;;15.00;;
71484;SDS011;59300;52.074;4.758;2022-11-28T02:28:32;27.43;;;14.60;;
71484;SDS011;59300;52.074;4.758;2022-11-28T02:41:42;30.45;;;13.60;;
71484;SDS011;59300;52.074;4.758;2022-11-28T02:48:18;29.45;;;13.68;;
71484;SDS011;59300;52.074;4.758;2022-11-28T02:51:45;27.15;;;13.82;;
71484;SDS011;59300;52.074;4.758;2022-11-28T02:54:52;24.48;;;13.13;;
71484;SDS011;59300;52.074;4.758;2022-11-28T02:57:55;25.52;;;13.38;;
71484;SDS011;59300;52.074;4.758;2022-11-28T03:00:57;29.35;;;14.90;;
71484;SDS011;59300;52.074;4.758;2022-11-28T03:14:27;33.75;;;16.63;;
71484;SDS011;59300;52.074;4.758;2022-11-28T03:18:06;32.97;;;16.65;;
71484;SDS011;59300;52.074;4.758;2022-11-28T03:21:16;33.80;;;17.70;;
71484;SDS011;59300;52.074;4.758;2022-11-28T03:27:47;34.60;;;17.33;;
71484;SDS011;59300;52.074;4.758;2022-11-28T03:31:11;33.55;;;16.80;;
71484;SDS011;59300;52.074;4.758;2022-11-28T03:34:18;33.50;;;15.80;;
71484;SDS011;59300;52.074;4.758;2022-11-28T03:37:24;34.55;;;17.58;;
71484;SDS011;59300;52.074;4.758;2022-11-28T03:40:31;34.95;;;18.30;;
71484;SDS011;59300;52.074;4.758;2022-11-28T03:43:40;38.95;;;19.75;;
71484;SDS011;59300;52.074;4.758;2022-11-28T03:46:45;37.15;;;19.80;;
71484;SDS011;59300;52.074;4.758;2022-11-28T03:49:52;40.42;;;20.33;;
71484;SDS011;59300;52.074;4.758;2022-11-28T03:52:59;41.85;;;19.42;;
71484;SDS011;59300;52.074;4.758;2022-11-28T03:56:17;40.88;;;19.10;;
71484;SDS011;59300;52.074;4.758;2022-11-28T03:59:27;40.95;;;18.13;;
71484;SDS011;59300;52.074;4.758;2022-11-28T04:02:39;37.45;;;19.02;;
71484;SDS011;59300;52.074;4.758;2022-11-28T04:05:51;40.60;;;19.23;;
71484;SDS011;59300;52.074;4.758;2022-11-28T04:09:01;34.75;;;17.67;;
71484;SDS011;59300;52.074;4.758;2022-11-28T04:22:04;44.85;;;18.98;;
71484;SDS011;59300;52.074;4.758;2022-11-28T04:25:11;45.08;;;19.90;;
71484;SDS011;59300;52.074;4.758;2022-11-28T04:28:17;44.70;;;20.35;;
71484;SDS011;59300;52.074;4.758;2022-11-28T04:31:22;41.38;;;19.58;;
71484;SDS011;59300;52.074;4.758;2022-11-28T04:34:25;39.78;;;20.63;;
71484;SDS011;59300;52.074;4.758;2022-11-28T04:37:31;43.20;;;19.48;;
71484;SDS011;59300;52.074;4.758;2022-11-28T04:40:37;46.95;;;20.02;;
71484;SDS011;59300;52.074;4.758;2022-11-28T04:43:48;45.83;;;20.40;;
71484;SDS011;59300;52.074;4.758;2022-11-28T04:46:54;43.90;;;20.25;;
71484;SDS011;59300;52.074;4.758;2022-11-28T04:49:56;44.50;;;20.02;;
71484;SDS011;59300;52.074;4.758;2022-11-28T04:53:08;45.75;;;20.00;;
71484;SDS011;59300;52.074;4.758;2022-11-28T04:56:17;47.45;;;19.23;;
71484;SDS011;59300;52.074;4.758;2022-11-28T04:59:21;41.00;;;20.80;;
71484;SDS011;59300;52.074;4.758;2022-11-28T05:02:25;46.58;;;21.35;;
71484;SDS011;59300;52.074;4.758;2022-11-28T05:05:28;49.88;;;21.05;;
71484;SDS011;59300;52.074;4.758;2022-11-28T05:08:30;46.75;;;21.10;;
71484;SDS011;59300;52.074;4.758;2022-11-28T05:11:31;48.95;;;20.13;;
71484;SDS011;59300;52.074;4.758;2022-11-28T05:14:33;47.47;;;20.92;;
71484;SDS011;59300;52.074;4.758;2022-11-28T05:17:34;49.85;;;22.08;;
71484;SDS011;59300;52.074;4.758;2022-11-28T05:20:42;50.50;;;21.23;;
71484;SDS011;59300;52.074;4.758;2022-11-28T05:23:44;47.95;;;21.33;;
71484;SDS011;59300;52.074;4.758;2022-11-28T05:26:46;47.80;;;21.13;;
71484;SDS011;59300;52.074;4.758;2022-11-28T05:29:47;51.78;;;22.38;;
71484;SDS011;59300;52.074;4.758;2022-11-28T05:32:52;51.50;;;21.38;;
71484;SDS011;59300;52.074;4.758;2022-11-28T05:35:54;46.38;;;21.38;;
71484;SDS011;59300;52.074;4.758;2022-11-28T05:38:56;52.88;;;22.27;;
71484;SDS011;59300;52.074;4.758;2022-11-28T05:41:57;49.63;;;21.70;;
71484;SDS011;59300;52.074;4.758;2022-11-28T05:44:59;57.58;;;22.98;;
71484;SDS011;59300;52.074;4.758;2022-11-28T05:48:00;49.60;;;21.75;;
71484;SDS011;59300;52.074;4.758;2022-11-28T05:51:03;53.13;;;22.80;;
71484;SDS011;59300;52.074;4.758;2022-11-28T05:54:05;62.33;;;23.63;;
71484;SDS011;59300;52.074;4.758;2022-11-28T05:57:06;51.83;;;21.65;;
71484;SDS011;59300;52.074;4.758;2022-11-28T06:00:08;51.33;;;22.65;;
71484;SDS011;59300;52.074;4.758;2022-11-28T06:03:14;59.42;;;22.23;;
71484;SDS011;59300;52.074;4.758;2022-11-28T06:06:19;58.88;;;21.83;;
71484;SDS011;59300;52.074;4.758;2022-11-28T06:09:21;50.30;;;20.67;;
71484;SDS011;59300;52.074;4.758;2022-11-28T06:12:26;61.58;;;21.10;;
71484;SDS011;59300;52.074;4.758;2022-11-28T06:15:31;59.72;;;22.50;;
71484;SDS011;59300;52.074;4.758;2022-11-28T06:18:38;62.92;;;21.90;;
71484;SDS011;59300;52.074;4.758;2022-11-28T06:21:40;62.80;;;22.58;;
71484;SDS011;59300;52.074;4.758;2022-11-28T06:24:42;77.05;;;23.67;;
71484;SDS011;59300;52.074;4.758;2022-11-28T06:27:43;70.97;;;24.40;;
71484;SDS011;59300;52.074;4.758;2022-11-28T06:30:45;68.90;;;23.80;;
71484;SDS011;59300;52.074;4.758;2022-11-28T06:33:46;71.00;;;24.63;;
71484;SDS011;59300;52.074;4.758;2022-11-28T06:36:48;80.95;;;25.75;;
71484;SDS011;59300;52.074;4.758;2022-11-28T06:39:49;84.40;;;25.30;;
71484;SDS011;59300;52.074;4.758;2022-11-28T06:42:51;90.05;;;24.85;;
71484;SDS011;59300;52.074;4.758;2022-11-28T06:45:52;90.47;;;25.25;;
71484;SDS011;59300;52.074;4.758;2022-11-28T06:48:54;87.55;;;24.55;;
71484;SDS011;59300;52.074;4.758;2022-11-28T06:51:55;89.63;;;26.30;;
71484;SDS011;59300;52.074;4.758;2022-11-28T06:54:58;87.90;;;25.13;;
71484;SDS011;59300;52.074;4.758;2022-11-28T06:57:59;96.03;;;24.63;;
71484;SDS011;59300;52.074;4.758;2022-11-28T07:01:07;103.40;;;27.92;;
71484;SDS011;59300;52.074;4.758;2022-11-28T07:04:14;94.93;;;25.33;;
71484;SDS011;59300;52.074;4.758;2022-11-28T07:07:15;102.50;;;26.00;;
71484;SDS011;59300;52.074;4.758;2022-11-28T07:10:17;98.97;;;26.10;;
71484;SDS011;59300;52.074;4.758;2022-11-28T07:13:19;100.40;;;26.13;;
71484;SDS011;59300;52.074;4.758;2022-11-28T07:16:21;97.40;;;26.15;;
71484;SDS011;59300;52.074;4.758;2022-11-28T07:19:27;102.28;;;26.98;;
71484;SDS011;59300;52.074;4.758;2022-11-28T07:22:29;114.55;;;26.20;;
71484;SDS011;59300;52.074;4.758;2022-11-28T07:25:30;114.95;;;26.50;;
71484;SDS011;59300;52.074;4.758;2022-11-28T07:28:32;121.63;;;27.45;;
71484;SDS011;59300;52.074;4.758;2022-11-28T07:31:35;110.30;;;26.45;;
71484;SDS011;59300;52.074;4.758;2022-11-28T07:34:37;132.07;;;29.23;;
71484;SDS011;59300;52.074;4.758;2022-11-28T07:37:38;111.38;;;26.33;;
71484;SDS011;59300;52.074;4.758;2022-11-28T07:40:40;125.97;;;28.75;;
71484;SDS011;59300;52.074;4.758;2022-11-28T07:43:42;117.88;;;27.33;;
71484;SDS011;59300;52.074;4.758;2022-11-28T07:46:45;124.27;;;27.10;;
71484;SDS011;59300;52.074;4.758;2022-11-28T07:49:47;147.77;;;29.20;;
71484;SDS011;59300;52.074;4.758;2022-11-28T07:52:48;141.77;;;28.83;;
71484;SDS011;59300;52.074;4.758;2022-11-28T07:55:49;129.75;;;27.20;;
71484;SDS011;59300;52.074;4.758;2022-11-28T07:58:51;154.02;;;27.75;;
71484;SDS011;59300;52.074;4.758;2022-11-28T08:01:53;147.48;;;29.55;;
71484;SDS011;59300;52.074;4.758;2022-11-28T08:04:54;149.65;;;29.60;;
71484;SDS011;59300;52.074;4.758;2022-11-28T08:07:56;149.75;;;29.00;;
71484;SDS011;59300;52.074;4.758;2022-11-28T08:10:58;161.40;;;29.35;;
71484;SDS011;59300;52.074;4.758;2022-11-28T08:14:01;159.33;;;30.37;;
71484;SDS011;59300;52.074;4.758;2022-11-28T08:17:04;133.23;;;29.20;;
71484;SDS011;59300;52.074;4.758;2022-11-28T08:20:05;149.35;;;28.98;;
71484;SDS011;59300;52.074;4.758;2022-11-28T08:23:08;139.18;;;29.08;;
71484;SDS011;59300;52.074;4.758;2022-11-28T08:26:10;165.18;;;30.60;;
71484;SDS011;59300;52.074;4.758;2022-11-28T08:29:14;149.45;;;29.13;;
71484;SDS011;59300;52.074;4.758;2022-11-28T08:32:15;137.52;;;30.08;;
71484;SDS011;59300;52.074;4.758;2022-11-28T08:35:17;160.88;;;28.75;;
71484;SDS011;59300;52.074;4.758;2022-11-28T08:38:18;159.32;;;30.52;;
71484;SDS011;59300;52.074;4.758;2022-11-28T08:41:21;133.98;;;27.83;;
71484;SDS011;59300;52.074;4.758;2022-11-28T08:44:23;172.75;;;28.25;;
71484;SDS011;59300;52.074;4.758;2022-11-28T08:47:26;166.35;;;31.27;;
71484;SDS011;59300;52.074;4.758;2022-11-28T08:50:27;170.10;;;31.25;;
71484;SDS011;59300;52.074;4.758;2022-11-28T08:53:29;195.02;;;30.40;;
71484;SDS011;59300;52.074;4.758;2022-11-28T08:56:49;180.82;;;31.73;;
71484;SDS011;59300;52.074;4.758;2022-11-28T09:00:10;207.02;;;32.08;;
71484;SDS011;59300;52.074;4.758;2022-11-28T09:03:30;183.65;;;31.35;;
71484;SDS011;59300;52.074;4.758;2022-11-28T09:06:32;169.80;;;30.70;;
71484;SDS011;59300;52.074;4.758;2022-11-28T09:09:33;203.10;;;33.97;;
71484;SDS011;59300;52.074;4.758;2022-11-28T09:12:35;197.63;;;30.75;;
71484;SDS011;59300;52.074;4.758;2022-11-28T09:15:40;177.80;;;31.33;;
71484;SDS011;59300;52.074;4.758;2022-11-28T09:22:21;172.55;;;30.55;;
71484;SDS011;59300;52.074;4.758;2022-11-28T09:25:41;172.48;;;30.02;;
71484;SDS011;59300;52.074;4.758;2022-11-28T09:29:01;143.32;;;28.80;;
71484;SDS011;59300;52.074;4.758;2022-11-28T09:32:21;142.68;;;30.25;;
71484;SDS011;59300;52.074;4.758;2022-11-28T09:35:41;143.65;;;29.85;;
71484;SDS011;59300;52.074;4.758;2022-11-28T09:39:01;120.38;;;28.05;;
71484;SDS011;59300;52.074;4.758;2022-11-28T09:42:29;144.73;;;30.00;;
71484;SDS011;59300;52.074;4.758;2022-11-28T09:45:54;126.55;;;29.17;;
71484;SDS011;59300;52.074;4.758;2022-11-28T09:53:08;112.68;;;27.65;;
71484;SDS011;59300;52.074;4.758;2022-11-28T09:56:43;104.88;;;27.60;;
71484;SDS011;59300;52.074;4.758;2022-11-28T10:00:11;106.75;;;28.00;;
71484;SDS011;59300;52.074;4.758;2022-11-28T10:03:38;89.93;;;25.75;;
71484;SDS011;59300;52.074;4.758;2022-11-28T10:07:12;88.20;;;25.52;;
71484;SDS011;59300;52.074;4.758;2022-11-28T10:21:36;82.03;;;23.13;;
71484;SDS011;59300;52.074;4.758;2022-11-28T10:28:21;64.15;;;21.17;;
71484;SDS011;59300;52.074;4.758;2022-11-28T10:31:44;60.00;;;20.48;;
71484;SDS011;59300;52.074;4.758;2022-11-28T10:35:19;64.57;;;22.40;;
71484;SDS011;59300;52.074;4.758;2022-11-28T10:38:46;59.78;;;21.58;;
71484;SDS011;59300;52.074;4.758;2022-11-28T10:42:14;54.90;;;20.95;;
71484;SDS011;59300;52.074;4.758;2022-11-28T10:45:56;58.85;;;22.13;;
71484;SDS011;59300;52.074;4.758;2022-11-28T10:49:38;59.25;;;22.42;;
71484;SDS011;59300;52.074;4.758;2022-11-28T10:53:19;50.20;;;20.70;;
71484;SDS011;59300;52.074;4.758;2022-11-28T11:00:13;50.10;;;20.77;;
71484;SDS011;59300;52.074;4.758;2022-11-28T11:03:35;52.58;;;21.10;;
71484;SDS011;59300;52.074;4.758;2022-11-28T11:07:00;45.00;;;20.80;;
71484;SDS011;59300;52.074;4.758;2022-11-28T11:11:36;47.97;;;20.30;;
71484;SDS011;59300;52.074;4.758;2022-11-28T11:14:39;47.45;;;20.55;;
71484;SDS011;59300;52.074;4.758;2022-11-28T11:18:03;46.95;;;21.80;;
71484;SDS011;59300;52.074;4.758;2022-11-28T11:21:25;53.03;;;21.45;;
71484;SDS011;59300;52.074;4.758;2022-11-28T11:31:49;49.72;;;22.50;;
71484;SDS011;59300;52.074;4.758;2022-11-28T11:34:52;50.03;;;22.63;;
71484;SDS011;59300;52.074;4.758;2022-11-28T11:38:15;54.00;;;22.85;;
71484;SDS011;59300;52.074;4.758;2022-11-28T11:41:33;53.05;;;22.50;;
71484;SDS011;59300;52.074;4.758;2022-11-28T11:44:35;55.13;;;22.92;;
71484;SDS011;59300;52.074;4.758;2022-11-28T11:47:40;51.58;;;22.25;;
71484;SDS011;59300;52.074;4.758;2022-11-28T11:50:52;52.72;;;23.35;;
71484;SDS011;59300;52.074;4.758;2022-11-28T11:54:01;53.15;;;22.58;;
71484;SDS011;59300;52.074;4.758;2022-11-28T11:57:02;65.60;;;23.25;;
71484;SDS011;59300;52.074;4.758;2022-11-28T12:00:27;60.45;;;23.48;;
71484;SDS011;59300;52.074;4.758;2022-11-28T12:03:56;59.22;;;22.33;;
71484;SDS011;59300;52.074;4.758;2022-11-28T12:11:27;52.72;;;21.48;;
71484;SDS011;59300;52.074;4.758;2022-11-28T12:14:52;54.63;;;21.10;;
71484;SDS011;59300;52.074;4.758;2022-11-28T12:21:26;49.55;;;20.15;;
71484;SDS011;59300;52.074;4.758;2022-11-28T12:24:41;48.40;;;20.08;;
71484;SDS011;59300;52.074;4.758;2022-11-28T12:31:22;47.95;;;21.02;;
71484;SDS011;59300;52.074;4.758;2022-11-28T12:34:57;45.90;;;20.15;;
71484;SDS011;59300;52.074;4.758;2022-11-28T12:38:38;51.33;;;21.17;;
71484;SDS011;59300;52.074;4.758;2022-11-28T12:45:27;52.22;;;21.35;;
71484;SDS011;59300;52.074;4.758;2022-11-28T12:58:18;55.25;;;23.60;;
71484;SDS011;59300;52.074;4.758;2022-11-28T13:04:57;52.10;;;22.17;;
71484;SDS011;59300;52.074;4.758;2022-11-28T13:15:43;57.95;;;21.02;;
71484;SDS011;59300;52.074;4.758;2022-11-28T13:19:51;58.67;;;21.40;;
71484;SDS011;59300;52.074;4.758;2022-11-28T13:23:20;58.05;;;21.08;;
71484;SDS011;59300;52.074;4.758;2022-11-28T13:26:47;59.50;;;22.75;;
71484;SDS011;59300;52.074;4.758;2022-11-28T13:30:20;62.75;;;21.70;;
71484;SDS011;59300;52.074;4.758;2022-11-28T13:33:49;52.63;;;22.02;;
71484;SDS011;59300;52.074;4.758;2022-11-28T13:37:30;59.60;;;21.58;;
71484;SDS011;59300;52.074;4.758;2022-11-28T13:41:20;58.33;;;22.90;;
71484;SDS011;59300;52.074;4.758;2022-11-28T13:45:06;61.08;;;23.73;;
71484;SDS011;59300;52.074;4.758;2022-11-28T13:48:49;59.17;;;23.20;;
71484;SDS011;59300;52.074;4.758;2022-11-28T13:52:30;56.28;;;21.88;;
71484;SDS011;59300;52.074;4.758;2022-11-28T13:58:56;57.22;;;22.67;;
71484;SDS011;59300;52.074;4.758;2022-11-28T14:02:00;53.35;;;21.83;;
71484;SDS011;59300;52.074;4.758;2022-11-28T14:05:14;59.83;;;22.73;;
71484;SDS011;59300;52.074;4.758;2022-11-28T14:11:41;62.13;;;25.05;;
71484;SDS011;59300;52.074;4.758;2022-11-28T14:18:34;70.50;;;23.95;;
71484;SDS011;59300;52.074;4.758;2022-11-28T14:25:46;69.22;;;24.40;;
71484;SDS011;59300;52.074;4.758;2022-11-28T14:31:54;76.45;;;23.90;;
71484;SDS011;59300;52.074;4.758;2022-11-28T14:36:00;68.80;;;25.08;;
71484;SDS011;59300;52.074;4.758;2022-11-28T14:42:36;89.15;;;25.17;;
71484;SDS011;59300;52.074;4.758;2022-11-28T14:46:18;82.97;;;24.35;;
71484;SDS011;59300;52.074;4.758;2022-11-28T14:49:31;83.85;;;24.88;;
71484;SDS011;59300;52.074;4.758;2022-11-28T14:52:40;90.43;;;25.88;;
71484;SDS011;59300;52.074;4.758;2022-11-28T14:55:46;86.20;;;25.20;;
71484;SDS011;59300;52.074;4.758;2022-11-28T14:58:48;86.70;;;26.13;;
71484;SDS011;59300;52.074;4.758;2022-11-28T15:01:55;92.18;;;23.83;;
71484;SDS011;59300;52.074;4.758;2022-11-28T15:05:16;83.85;;;24.98;;
71484;SDS011;59300;52.074;4.758;2022-11-28T15:08:44;82.95;;;24.70;;
71484;SDS011;59300;52.074;4.758;2022-11-28T15:15:13;82.80;;;22.63;;
71484;SDS011;59300;52.074;4.758;2022-11-28T15:18:15;84.10;;;24.65;;
71484;SDS011;59300;52.074;4.758;2022-11-28T15:21:19;98.40;;;25.67;;
71484;SDS011;59300;52.074;4.758;2022-11-28T15:24:22;92.63;;;23.80;;
71484;SDS011;59300;52.074;4.758;2022-11-28T15:27:31;98.85;;;25.63;;
71484;SDS011;59300;52.074;4.758;2022-11-28T15:30:32;113.28;;;25.83;;
71484;SDS011;59300;52.074;4.758;2022-11-28T15:33:42;118.88;;;25.70;;
71484;SDS011;59300;52.074;4.758;2022-11-28T15:36:44;122.82;;;27.15;;
71484;SDS011;59300;52.074;4.758;2022-11-28T15:39:49;127.78;;;28.45;;
71484;SDS011;59300;52.074;4.758;2022-11-28T15:42:51;153.10;;;35.42;;
71484;SDS011;59300;52.074;4.758;2022-11-28T15:45:53;162.98;;;36.15;;
71484;SDS011;59300;52.074;4.758;2022-11-28T15:48:58;143.95;;;31.42;;
71484;SDS011;59300;52.074;4.758;2022-11-28T15:52:01;151.07;;;29.90;;
71484;SDS011;59300;52.074;4.758;2022-11-28T15:55:14;140.77;;;30.60;;
71484;SDS011;59300;52.074;4.758;2022-11-28T16:04:30;159.40;;;31.27;;
71484;SDS011;59300;52.074;4.758;2022-11-28T16:07:32;154.98;;;31.02;;
71484;SDS011;59300;52.074;4.758;2022-11-28T16:10:42;158.15;;;30.30;;
71484;SDS011;59300;52.074;4.758;2022-11-28T16:13:44;155.23;;;29.83;;
71484;SDS011;59300;52.074;4.758;2022-11-28T16:16:46;144.27;;;29.00;;
71484;SDS011;59300;52.074;4.758;2022-11-28T16:19:49;116.90;;;25.92;;
71484;SDS011;59300;52.074;4.758;2022-11-28T16:26:02;111.18;;;26.60;;
71484;SDS011;59300;52.074;4.758;2022-11-28T16:29:21;125.60;;;26.27;;
71484;SDS011;59300;52.074;4.758;2022-11-28T16:35:36;108.40;;;25.15;;
71484;SDS011;59300;52.074;4.758;2022-11-28T16:38:38;137.50;;;26.17;;
71484;SDS011;59300;52.074;4.758;2022-11-28T16:42:25;130.63;;;27.55;;
71484;SDS011;59300;52.074;4.758;2022-11-28T16:45:17;127.18;;;26.95;;
71484;SDS011;59300;52.074;4.758;2022-11-28T16:48:20;117.95;;;25.02;;
71484;SDS011;59300;52.074;4.758;2022-11-28T16:54:27;98.80;;;23.38;;
71484;SDS011;59300;52.074;4.758;2022-11-28T16:57:44;98.90;;;23.48;;
71484;SDS011;59300;52.074;4.758;2022-11-28T17:00:57;105.43;;;24.75;;
71484;SDS011;59300;52.074;4.758;2022-11-28T17:04:01;151.65;;;31.52;;
71484;SDS011;59300;52.074;4.758;2022-11-28T17:07:04;150.25;;;30.15;;
71484;SDS011;59300;52.074;4.758;2022-11-28T17:10:13;147.63;;;29.83;;
71484;SDS011;59300;52.074;4.758;2022-11-28T17:13:14;132.07;;;27.58;;
71484;SDS011;59300;52.074;4.758;2022-11-28T17:16:20;136.77;;;27.50;;
71484;SDS011;59300;52.074;4.758;2022-11-28T17:19:24;124.72;;;26.05;;
71484;SDS011;59300;52.074;4.758;2022-11-28T17:22:30;125.32;;;24.98;;
71484;SDS011;59300;52.074;4.758;2022-11-28T17:25:41;137.95;;;27.65;;
71484;SDS011;59300;52.074;4.758;2022-11-28T17:28:42;122.57;;;26.00;;
71484;SDS011;59300;52.074;4.758;2022-11-28T17:31:44;129.75;;;24.90;;
71484;SDS011;59300;52.074;4.758;2022-11-28T17:34:47;137.13;;;27.42;;
71484;SDS011;59300;52.074;4.758;2022-11-28T17:37:48;144.02;;;28.20;;
71484;SDS011;59300;52.074;4.758;2022-11-28T17:40:50;166.38;;;32.08;;
71484;SDS011;59300;52.074;4.758;2022-11-28T17:43:51;168.18;;;30.83;;
71484;SDS011;59300;52.074;4.758;2022-11-28T17:46:53;133.02;;;28.35;;
71484;SDS011;59300;52.074;4.758;2022-11-28T17:49:56;163.65;;;32.60;;
71484;SDS011;59300;52.074;4.758;2022-11-28T17:52:58;169.27;;;33.20;;
71484;SDS011;59300;52.074;4.758;2022-11-28T17:56:01;194.77;;;35.60;;
71484;SDS011;59300;52.074;4.758;2022-11-28T17:59:03;159.85;;;32.17;;
71484;SDS011;59300;52.074;4.758;2022-11-28T18:02:05;184.05;;;34.22;;
71484;SDS011;59300;52.074;4.758;2022-11-28T18:05:08;190.25;;;36.92;;
71484;SDS011;59300;52.074;4.758;2022-11-28T18:08:10;201.35;;;37.15;;
71484;SDS011;59300;52.074;4.758;2022-11-28T18:11:22;215.63;;;38.00;;
71484;SDS011;59300;52.074;4.758;2022-11-28T18:14:23;236.30;;;41.05;;
71484;SDS011;59300;52.074;4.758;2022-11-28T18:17:25;277.98;;;45.30;;
71484;SDS011;59300;52.074;4.758;2022-11-28T18:20:26;232.20;;;43.63;;
71484;SDS011;59300;52.074;4.758;2022-11-28T18:23:28;301.23;;;48.75;;
71484;SDS011;59300;52.074;4.758;2022-11-28T18:26:30;282.65;;;47.25;;
71484;SDS011;59300;52.074;4.758;2022-11-28T18:29:32;366.92;;;51.95;;
71484;SDS011;59300;52.074;4.758;2022-11-28T18:32:33;380.55;;;53.08;;
71484;SDS011;59300;52.074;4.758;2022-11-28T18:35:35;392.65;;;51.72;;
71484;SDS011;59300;52.074;4.758;2022-11-28T18:38:37;372.95;;;51.53;;
71484;SDS011;59300;52.074;4.758;2022-11-28T18:41:40;402.02;;;54.13;;
71484;SDS011;59300;52.074;4.758;2022-11-28T18:44:42;420.63;;;50.70;;
71484;SDS011;59300;52.074;4.758;2022-11-28T18:47:43;396.25;;;49.90;;
71484;SDS011;59300;52.074;4.758;2022-11-28T18:50:45;433.00;;;53.28;;
71484;SDS011;59300;52.074;4.758;2022-11-28T18:53:47;390.30;;;50.38;;
71484;SDS011;59300;52.074;4.758;2022-11-28T18:56:51;412.52;;;50.80;;
71484;SDS011;59300;52.074;4.758;2022-11-28T18:59:52;403.00;;;54.65;;
71484;SDS011;59300;52.074;4.758;2022-11-28T19:02:56;408.13;;;51.83;;
71484;SDS011;59300;52.074;4.758;2022-11-28T19:05:57;394.15;;;51.97;;
71484;SDS011;59300;52.074;4.758;2022-11-28T19:08:59;431.90;;;51.20;;
71484;SDS011;59300;52.074;4.758;2022-11-28T19:12:03;402.35;;;47.80;;
71484;SDS011;59300;52.074;4.758;2022-11-28T19:15:05;414.42;;;51.80;;
71484;SDS011;59300;52.074;4.758;2022-11-28T19:18:07;398.08;;;48.53;;
71484;SDS011;59300;52.074;4.758;2022-11-28T19:21:13;393.60;;;52.35;;
71484;SDS011;59300;52.074;4.758;2022-11-28T19:24:19;399.20;;;49.42;;
71484;SDS011;59300;52.074;4.758;2022-11-28T19:27:20;392.42;;;47.28;;
71484;SDS011;59300;52.074;4.758;2022-11-28T19:30:22;396.92;;;49.13;;
71484;SDS011;59300;52.074;4.758;2022-11-28T19:33:23;390.58;;;51.53;;
71484;SDS011;59300;52.074;4.758;2022-11-28T19:36:25;418.73;;;54.47;;
71484;SDS011;59300;52.074;4.758;2022-11-28T19:39:27;405.55;;;48.22;;
71484;SDS011;59300;52.074;4.758;2022-11-28T19:42:29;346.67;;;41.90;;
71484;SDS011;59300;52.074;4.758;2022-11-28T19:45:31;360.50;;;47.55;;
71484;SDS011;59300;52.074;4.758;2022-11-28T19:48:33;411.63;;;47.72;;
71484;SDS011;59300;52.074;4.758;2022-11-28T19:51:36;397.53;;;47.97;;
71484;SDS011;59300;52.074;4.758;2022-11-28T19:54:38;362.20;;;45.70;;
71484;SDS011;59300;52.074;4.758;2022-11-28T19:57:39;334.67;;;43.67;;
71484;SDS011;59300;52.074;4.758;2022-11-28T20:00:41;366.23;;;44.85;;
71484;SDS011;59300;52.074;4.758;2022-11-28T20:03:43;385.83;;;48.22;;
71484;SDS011;59300;52.074;4.758;2022-11-28T20:06:46;321.98;;;41.15;;
71484;SDS011;59300;52.074;4.758;2022-11-28T20:09:48;276.23;;;39.03;;
71484;SDS011;59300;52.074;4.758;2022-11-28T20:12:49;317.27;;;39.33;;
71484;SDS011;59300;52.074;4.758;2022-11-28T20:15:52;308.40;;;40.30;;
71484;SDS011;59300;52.074;4.758;2022-11-28T20:18:55;261.75;;;36.83;;
71484;SDS011;59300;52.074;4.758;2022-11-28T20:21:56;241.63;;;34.95;;
71484;SDS011;59300;52.074;4.758;2022-11-28T20:24:58;237.07;;;33.63;;
71484;SDS011;59300;52.074;4.758;2022-11-28T20:28:00;252.05;;;41.50;;
71484;SDS011;59300;52.074;4.758;2022-11-28T20:31:01;310.55;;;52.83;;
71484;SDS011;59300;52.074;4.758;2022-11-28T20:34:04;308.65;;;45.75;;
71484;SDS011;59300;52.074;4.758;2022-11-28T20:37:06;308.45;;;40.22;;
71484;SDS011;59300;52.074;4.758;2022-11-28T20:40:08;290.80;;;38.47;;
71484;SDS011;59300;52.074;4.758;2022-11-28T20:43:10;277.52;;;39.33;;
71484;SDS011;59300;52.074;4.758;2022-11-28T20:49:15;248.07;;;35.43;;
71484;SDS011;59300;52.074;4.758;2022-11-28T20:52:16;245.95;;;34.85;;
71484;SDS011;59300;52.074;4.758;2022-11-28T20:55:18;275.67;;;34.97;;
71484;SDS011;59300;52.074;4.758;2022-11-28T20:58:19;248.25;;;34.88;;